Time,TemperatureF,DewpointF,PressureIn,WindDirection,WindDirectionDegrees,WindSpeedMPH,WindSpeedGustMPH,Humidity,HourlyPrecipIn,Conditions,Clouds,dailyrainin,SolarRadiationWatts/m^2,SoftwareType,DateUTC
2013-03-03 00:00:00,34.6,28.1,29.71,NNE,16,0.0,0.0,77,0.00,CLR,SKC,0.00,0.0,WeatherDisplay:10.37,2013-03-03 05:00:00,
2013-03-03 00:05:00,34.1,28.0,29.71,NNE,28,5.8,5.8,78,0.00,CLR,SKC,0.00,0.0,WeatherDisplay:10.37,2013-03-03 05:05:00,
2013-03-03 00:10:00,34.0,28.2,29.71,NE,40,0.0,0.0,79,0.00,CLR,SKC,0.00,0.0,WeatherDisplay:10.37,2013-03-03 05:10:00,
2013-03-03 00:16:00,34.1,28.6,29.71,NE,40,0.0,0.0,80,0.00,CLR,SKC,0.00,0.0,WeatherDisplay:10.37,2013-03-03 05:16:00,
2013-03-03 00:21:00,33.9,28.4,29.71,NE,40,0.0,0.0,80,0.00,CLR,SKC,0.00,0.0,WeatherDisplay:10.37,2013-03-03 05:21:00,
2013-03-03 00:26:00,34.1,28.9,29.71,NE,40,0.0,0.0,81,0.00,CLR,SKC,0.00,0.0,WeatherDisplay:10.37,2013-03-03 05:26:00,
2013-03-03 00:31:00,34.1,28.9,29.71,NE,40,0.0,0.0,81,0.00,CLR,SKC,0.00,0.0,WeatherDisplay:10.37,2013-03-03 05:31:00,
2013-03-03 00:36:00,34.2,29.3,29.71,NE,40,0.0,0.0,82,0.00,CLR,SKC,0.00,0.0,WeatherDisplay:10.37,2013-03-03 05:36:00,
2013-03-03 00:41:00,34.2,29.3,29.71,NE,40,0.0,0.0,82,0.00,CLR,SKC,0.00,0.0,WeatherDisplay:10.37,2013-03-03 05:41:00,
2013-03-03 00:46:00,34.1,29.5,29.71,NE,40,0.0,0.0,83,0.00,CLR,SKC,0.00,0.0,WeatherDisplay:10.37,2013-03-03 05:46:00,
2013-03-03 00:51:00,34.1,29.5,29.71,NE,40,0.0,0.0,83,0.00,CLR,SKC,0.00,0.0,WeatherDisplay:10.37,2013-03-03 05:51:00,
2013-03-03 00:56:00,33.8,29.2,29.71,NE,40,0.0,0.0,83,0.00,CLR,SKC,0.00,0.0,WeatherDisplay:10.37,2013-03-03 05:56:00,
2013-03-03 01:01:00,34.0,29.7,29.71,NE,40,0.0,0.0,84,0.00,CLR,SKC,0.00,0.0,WeatherDisplay:10.37,2013-03-03 06:01:00,
2013-03-03 01:06:00,33.9,29.0,29.71,NE,40,0.0,0.0,82,0.00,CLR,SKC,0.00,0.0,WeatherDisplay:10.37,2013-03-03 06:06:00,
2013-03-03 01:11:00,34.0,29.4,29.71,NE,40,0.0,0.0,83,0.00,CLR,SKC,0.00,0.0,WeatherDisplay:10.37,2013-03-03 06:11:00,
2013-03-03 01:16:00,33.7,28.8,29.71,NNW,329,5.8,5.8,82,0.00,CLR,SKC,0.00,0.0,WeatherDisplay:10.37,2013-03-03 06:16:00,
2013-03-03 01:21:00,33.8,28.6,29.71,NNW,337,5.8,5.8,81,0.00,CLR,SKC,0.00,0.0,WeatherDisplay:10.37,2013-03-03 06:21:00,
2013-03-03 01:26:00,33.6,28.4,29.71,North,360,5.8,5.8,81,0.00,CLR,SKC,0.00,0.0,WeatherDisplay:10.37,2013-03-03 06:26:00,
2013-03-03 01:31:00,33.6,28.4,29.71,NW,322,0.0,0.0,81,0.00,CLR,SKC,0.00,0.0,WeatherDisplay:10.37,2013-03-03 06:31:00,
2013-03-03 01:36:00,33.5,28.0,29.71,NNE,21,6.9,6.9,80,0.00,CLR,SKC,0.00,0.0,WeatherDisplay:10.37,2013-03-03 06:36:00,
2013-03-03 01:41:00,33.0,27.5,29.71,NW,326,0.0,0.0,80,0.00,CLR,SKC,0.00,0.0,WeatherDisplay:10.37,2013-03-03 06:41:00,
2013-03-03 01:46:00,33.2,28.0,29.71,NW,318,3.5,3.5,81,0.00,CLR,SKC,0.00,0.0,WeatherDisplay:10.37,2013-03-03 06:46:00,
2013-03-03 01:51:00,32.8,27.3,29.71,NW,319,0.0,0.0,80,0.00,CLR,SKC,0.00,0.0,WeatherDisplay:10.37,2013-03-03 06:51:00,
2013-03-03 01:56:00,32.4,27.2,29.71,WNW,294,3.5,3.5,81,0.00,CLR,SKC,0.00,0.0,WeatherDisplay:10.37,2013-03-03 06:56:00,
2013-03-03 02:01:00,32.7,27.5,29.71,NW,308,1.2,0.0,81,0.00,CLR,SKC,0.00,0.0,WeatherDisplay:10.37,2013-03-03 07:01:00,
2013-03-03 02:06:00,32.3,27.1,29.71,NW,308,0.0,0.0,81,0.00,CLR,SKC,0.00,0.0,WeatherDisplay:10.37,2013-03-03 07:06:00,
2013-03-03 02:11:00,32.3,27.4,29.71,NW,308,0.0,0.0,82,0.00,CLR,SKC,0.00,0.0,WeatherDisplay:10.37,2013-03-03 07:11:00,
2013-03-03 02:16:00,31.8,26.9,29.70,NNW,336,4.6,4.6,82,0.00,CLR,SKC,0.00,0.0,WeatherDisplay:10.37,2013-03-03 07:16:00,
2013-03-03 02:21:00,30.9,26.1,29.70,North,356,3.4,3.4,82,0.00,CLR,SKC,0.00,0.0,WeatherDisplay:10.37,2013-03-03 07:21:00,
2013-03-03 02:26:00,31.8,26.9,29.70,NW,325,0.0,0.0,82,0.00,CLR,SKC,0.00,0.0,WeatherDisplay:10.37,2013-03-03 07:26:00,
2013-03-03 02:31:00,31.2,26.3,29.70,NNE,14,6.9,6.9,82,0.00,CLR,SKC,0.00,0.0,WeatherDisplay:10.37,2013-03-03 07:31:00,
2013-03-03 02:36:00,31.1,26.2,29.70,North,352,0.0,0.0,82,0.00,CLR,SKC,0.00,0.0,WeatherDisplay:10.37,2013-03-03 07:36:00,
2013-03-03 02:41:00,30.8,26.2,29.70,NNE,27,0.0,0.0,83,0.00,CLR,SKC,0.00,0.0,WeatherDisplay:10.37,2013-03-03 07:41:00,
2013-03-03 02:46:00,31.0,26.4,29.70,NNE,25,0.0,0.0,83,0.00,CLR,SKC,0.00,0.0,WeatherDisplay:10.37,2013-03-03 07:46:00,
2013-03-03 02:51:00,31.3,26.7,29.70,NW,319,3.5,3.5,83,0.00,CLR,SKC,0.00,0.0,WeatherDisplay:10.37,2013-03-03 07:51:00,
2013-03-03 02:56:00,30.9,26.3,29.70,NNW,339,5.8,5.8,83,0.00,CLR,SKC,0.00,0.0,WeatherDisplay:10.37,2013-03-03 07:56:00,
2013-03-03 03:01:00,30.5,26.0,29.70,WNW,282,0.0,0.0,83,0.00,CLR,SKC,0.00,0.0,WeatherDisplay:10.37,2013-03-03 08:01:00,
2013-03-03 03:06:00,30.6,26.1,29.70,NW,323,0.0,0.0,83,0.00,CLR,SKC,0.00,0.0,WeatherDisplay:10.37,2013-03-03 08:06:00,
2013-03-03 03:11:00,30.8,26.2,29.69,NNW,328,4.6,4.6,83,0.00,CLR,SKC,0.00,0.0,WeatherDisplay:10.37,2013-03-03 08:11:00,
2013-03-03 03:16:00,30.8,26.2,29.69,North,360,0.0,0.0,83,0.00,CLR,SKC,0.00,0.0,WeatherDisplay:10.37,2013-03-03 08:16:00,
2013-03-03 03:21:00,30.7,26.1,29.69,NNW,333,3.5,3.5,83,0.00,CLR,SKC,0.00,0.0,WeatherDisplay:10.37,2013-03-03 08:21:00,
2013-03-03 03:26:00,31.0,26.4,29.69,NNE,24,0.0,1.9,83,0.00,CLR,SKC,0.00,0.0,WeatherDisplay:10.37,2013-03-03 08:26:00,
2013-03-03 03:31:00,30.9,26.3,29.69,North,0,4.6,0.0,83,0.00,CLR,SKC,0.00,0.0,WeatherDisplay:10.37,2013-03-03 08:31:00,
2013-03-03 03:36:00,31.2,26.6,29.69,NNW,330,6.9,6.9,83,0.00,CLR,SKC,0.00,0.0,WeatherDisplay:10.37,2013-03-03 08:36:00,
2013-03-03 03:41:00,30.7,26.1,29.69,NW,306,4.2,4.2,83,0.00,CLR,SKC,0.00,0.0,WeatherDisplay:10.37,2013-03-03 08:41:00,
2013-03-03 03:46:00,31.2,26.6,29.69,North,10,4.6,4.6,83,0.00,CLR,SKC,0.00,0.0,WeatherDisplay:10.37,2013-03-03 08:46:00,
2013-03-03 03:51:00,30.7,25.9,29.69,NNW,343,4.3,0.0,82,0.00,CLR,SKC,0.00,0.0,WeatherDisplay:10.37,2013-03-03 08:51:00,
2013-03-03 03:56:00,30.7,25.9,29.69,NW,320,10.4,10.4,82,0.00,CLR,SKC,0.00,0.0,WeatherDisplay:10.37,2013-03-03 08:56:00,
2013-03-03 04:01:00,31.0,26.1,29.69,NW,306,6.9,6.9,82,0.00,CLR,SKC,0.00,0.0,WeatherDisplay:10.37,2013-03-03 09:01:00,
2013-03-03 04:06:00,30.7,25.9,29.69,North,360,5.8,5.8,82,0.00,CLR,SKC,0.00,0.0,WeatherDisplay:10.37,2013-03-03 09:06:00,
2013-03-03 04:12:00,30.9,26.1,29.69,NE,40,0.0,0.0,82,0.00,CLR,SKC,0.00,0.0,WeatherDisplay:10.37,2013-03-03 09:12:00,
2013-03-03 04:17:00,30.8,26.0,29.69,NNW,344,5.8,5.8,82,0.00,CLR,SKC,0.00,0.0,WeatherDisplay:10.37,2013-03-03 09:17:00,
2013-03-03 04:22:00,30.5,25.7,29.69,North,3,0.0,0.0,82,0.00,CLR,SKC,0.00,0.0,WeatherDisplay:10.37,2013-03-03 09:22:00,
2013-03-03 04:27:00,30.8,26.0,29.69,North,3,0.0,0.0,82,0.00,CLR,SKC,0.00,0.0,WeatherDisplay:10.37,2013-03-03 09:27:00,
2013-03-03 04:32:00,31.1,26.2,29.69,SW,226,5.8,5.8,82,0.00,CLR,SKC,0.00,0.0,WeatherDisplay:10.37,2013-03-03 09:32:00,
2013-03-03 04:37:00,31.0,26.1,29.69,NW,318,0.0,0.0,82,0.00,CLR,SKC,0.00,0.0,WeatherDisplay:10.37,2013-03-03 09:37:00,
2013-03-03 04:42:00,30.9,26.1,29.69,NW,306,3.5,3.5,82,0.00,CLR,SKC,0.00,0.0,WeatherDisplay:10.37,2013-03-03 09:42:00,
2013-03-03 04:47:00,30.5,25.7,29.69,NNW,336,5.8,5.8,82,0.00,CLR,SKC,0.00,0.0,WeatherDisplay:10.37,2013-03-03 09:47:00,
2013-03-03 04:52:00,30.8,26.0,29.69,NW,304,8.1,8.1,82,0.00,CLR,SKC,0.00,0.0,WeatherDisplay:10.37,2013-03-03 09:52:00,
2013-03-03 04:57:00,30.6,25.8,29.69,WNW,291,0.0,0.0,82,0.00,CLR,SKC,0.00,0.0,WeatherDisplay:10.37,2013-03-03 09:57:00,
2013-03-03 05:02:00,30.6,25.8,29.69,NW,313,6.9,6.9,82,0.00,CLR,SKC,0.00,0.0,WeatherDisplay:10.37,2013-03-03 10:02:00,
2013-03-03 05:07:00,30.6,25.8,29.70,West,272,3.0,0.0,82,0.00,CLR,SKC,0.00,0.0,WeatherDisplay:10.37,2013-03-03 10:07:00,
2013-03-03 05:12:00,30.7,25.9,29.70,NNW,333,4.6,4.6,82,0.00,CLR,SKC,0.00,0.0,WeatherDisplay:10.37,2013-03-03 10:12:00,
2013-03-03 05:17:00,30.7,25.9,29.70,NW,325,9.2,9.2,82,0.00,CLR,SKC,0.00,0.0,WeatherDisplay:10.37,2013-03-03 10:17:00,
2013-03-03 05:22:00,30.9,26.3,29.70,NNE,14,0.0,0.0,83,0.00,CLR,SKC,0.00,0.0,WeatherDisplay:10.37,2013-03-03 10:22:00,
2013-03-03 05:27:00,30.3,25.5,29.70,NW,326,4.6,4.6,82,0.00,CLR,SKC,0.00,0.0,WeatherDisplay:10.37,2013-03-03 10:27:00,
2013-03-03 05:32:00,30.6,26.1,29.70,NW,323,3.5,3.5,83,0.00,CLR,SKC,0.00,0.0,WeatherDisplay:10.37,2013-03-03 10:32:00,
2013-03-03 05:37:00,30.5,26.0,29.70,NW,323,0.0,0.0,83,0.00,CLR,SKC,0.00,0.0,WeatherDisplay:10.37,2013-03-03 10:37:00,
2013-03-03 05:42:00,30.7,26.1,29.70,NW,323,0.0,0.0,83,0.00,CLR,SKC,0.00,0.0,WeatherDisplay:10.37,2013-03-03 10:42:00,
2013-03-03 05:47:00,30.4,25.9,29.70,NW,320,2.3,2.3,83,0.00,CLR,SKC,0.00,0.0,WeatherDisplay:10.37,2013-03-03 10:47:00,
2013-03-03 05:52:00,30.3,25.8,29.70,WNW,296,0.0,0.0,83,0.00,CLR,SKC,0.00,0.0,WeatherDisplay:10.37,2013-03-03 10:52:00,
2013-03-03 05:57:00,30.4,25.9,29.70,WNW,296,0.0,0.0,83,0.00,CLR,SKC,0.00,0.0,WeatherDisplay:10.37,2013-03-03 10:57:00,
2013-03-03 06:02:00,30.4,25.9,29.70,WNW,296,0.0,0.0,83,0.00,CLR,SKC,0.00,0.0,WeatherDisplay:10.37,2013-03-03 11:02:00,
2013-03-03 06:07:00,30.5,26.0,29.70,WNW,296,0.0,0.0,83,0.00,CLR,SKC,0.00,0.0,WeatherDisplay:10.37,2013-03-03 11:07:00,
2013-03-03 06:12:00,29.8,25.3,29.70,WSW,250,6.9,6.9,83,0.00,CLR,SKC,0.00,0.0,WeatherDisplay:10.37,2013-03-03 11:12:00,
2013-03-03 06:17:00,30.5,26.0,29.70,NNW,330,6.9,6.9,83,0.00,CLR,SKC,0.00,0.0,WeatherDisplay:10.37,2013-03-03 11:17:00,
2013-03-03 06:22:00,30.2,25.7,29.70,WNW,301,0.0,0.0,83,0.00,CLR,SKC,0.00,0.0,WeatherDisplay:10.37,2013-03-03 11:22:00,
2013-03-03 06:27:00,30.2,25.7,29.70,NNW,335,8.1,8.1,83,0.00,CLR,SKC,0.00,0.0,WeatherDisplay:10.37,2013-03-03 11:27:00,
2013-03-03 06:32:00,30.5,26.0,29.70,NW,305,3.5,0.0,83,0.00,CLR,SKC,0.00,0.0,WeatherDisplay:10.37,2013-03-03 11:32:00,
2013-03-03 06:37:00,30.2,25.7,29.70,NW,305,0.0,0.0,83,0.00,CLR,SKC,0.00,0.0,WeatherDisplay:10.37,2013-03-03 11:37:00,
2013-03-03 06:42:00,30.4,25.9,29.70,North,360,7.0,7.0,83,0.00,CLR,SKC,0.00,0.0,WeatherDisplay:10.37,2013-03-03 11:42:00,
2013-03-03 06:47:00,29.9,25.4,29.71,WNW,288,0.0,0.0,83,0.00,CLR,SKC,0.00,0.0,WeatherDisplay:10.37,2013-03-03 11:47:00,
2013-03-03 06:52:00,30.5,25.7,29.71,North,1,6.9,6.9,82,0.00,CLR,SKC,0.00,0.0,WeatherDisplay:10.37,2013-03-03 11:52:00,
2013-03-03 06:57:00,30.3,25.5,29.71,WNW,285,4.6,4.6,82,0.00,CLR,SKC,0.00,0.0,WeatherDisplay:10.37,2013-03-03 11:57:00,
2013-03-03 07:03:00,30.6,25.8,29.71,West,270,0.0,0.0,82,0.00,CLR,SKC,0.00,0.0,WeatherDisplay:10.37,2013-03-03 12:03:00,
2013-03-03 07:08:00,30.8,26.0,29.71,NW,313,4.3,4.3,82,0.00,CLR,SKC,0.00,0.0,WeatherDisplay:10.37,2013-03-03 12:08:00,
2013-03-03 07:13:00,30.7,25.9,29.71,NNW,337,0.0,1.0,82,0.00,CLR,SKC,0.00,0.0,WeatherDisplay:10.37,2013-03-03 12:13:00,
2013-03-03 07:18:00,30.8,25.7,29.71,NNW,347,5.0,5.0,81,0.00,CLR,SKC,0.00,0.0,WeatherDisplay:10.37,2013-03-03 12:18:00,
2013-03-03 07:23:00,30.5,25.4,29.71,NNW,336,5.8,5.8,81,0.00,CLR,SKC,0.00,0.0,WeatherDisplay:10.37,2013-03-03 12:23:00,
2013-03-03 07:28:00,30.7,25.6,29.71,WNW,298,4.6,4.6,81,0.00,CLR,SKC,0.00,0.0,WeatherDisplay:10.37,2013-03-03 12:28:00,
2013-03-03 07:33:00,30.6,25.2,29.71,WNW,302,6.9,6.9,80,0.00,CLR,SKC,0.00,0.0,WeatherDisplay:10.37,2013-03-03 12:33:00,
2013-03-03 07:38:00,30.8,25.4,29.72,North,6,8.1,8.1,80,0.00,CLR,SKC,0.00,0.0,WeatherDisplay:10.37,2013-03-03 12:38:00,
2013-03-03 07:43:00,30.8,25.4,29.72,WNW,282,6.9,6.9,80,0.00,CLR,SKC,0.00,0.0,WeatherDisplay:10.37,2013-03-03 12:43:00,
2013-03-03 07:48:00,30.7,25.3,29.72,NW,306,5.8,5.8,80,0.00,CLR,SKC,0.00,0.0,WeatherDisplay:10.37,2013-03-03 12:48:00,
2013-03-03 07:53:00,30.8,25.4,29.72,NW,308,6.8,6.8,80,0.00,CLR,SKC,0.00,0.0,WeatherDisplay:10.37,2013-03-03 12:53:00,
2013-03-03 07:58:00,30.8,25.7,29.72,NW,323,5.8,5.8,81,0.00,CLR,SKC,0.00,0.0,WeatherDisplay:10.37,2013-03-03 12:58:00,
2013-03-03 08:03:00,30.9,25.8,29.72,North,349,9.2,9.2,81,0.00,OVC,SKC,0.00,0.0,WeatherDisplay:10.37,2013-03-03 13:03:00,
2013-03-03 08:08:00,31.4,26.5,29.72,WNW,282,4.6,4.6,82,0.00,OVC,SKC,0.00,0.0,WeatherDisplay:10.37,2013-03-03 13:08:00,
2013-03-03 08:13:00,31.4,26.2,29.72,NW,309,6.9,6.9,81,0.00,OVC,SKC,0.00,0.0,WeatherDisplay:10.37,2013-03-03 13:13:00,
2013-03-03 08:18:00,31.6,26.1,29.72,NNW,339,9.2,9.2,80,0.00,OVC,SKC,0.00,0.0,WeatherDisplay:10.37,2013-03-03 13:18:00,
2013-03-03 08:23:00,31.9,26.4,29.72,NW,316,3.4,3.7,80,0.00,OVC,SKC,0.00,0.0,WeatherDisplay:10.37,2013-03-03 13:23:00,
2013-03-03 08:28:00,32.2,26.7,29.72,NW,315,8.1,8.1,80,0.00,OVC,SKC,0.00,0.0,WeatherDisplay:10.37,2013-03-03 13:28:00,
2013-03-03 08:33:00,32.4,26.6,29.72,NNE,18,4.6,0.0,79,0.00,OVC,SKC,0.00,0.0,WeatherDisplay:10.37,2013-03-03 13:33:00,
2013-03-03 08:38:00,32.7,26.9,29.72,WNW,302,9.2,9.2,79,0.00,OVC,SKC,0.00,0.0,WeatherDisplay:10.37,2013-03-03 13:38:00,
2013-03-03 08:43:00,32.9,27.4,29.72,WSW,250,0.0,0.0,80,0.00,OVC,SKC,0.00,0.0,WeatherDisplay:10.37,2013-03-03 13:43:00,
2013-03-03 08:48:00,33.4,27.6,29.72,NW,311,4.6,0.0,79,0.00,OVC,SKC,0.00,0.0,WeatherDisplay:10.37,2013-03-03 13:48:00,
2013-03-03 08:53:00,33.8,27.7,29.72,NNE,25,5.8,5.8,78,0.00,OVC,SKC,0.00,0.0,WeatherDisplay:10.37,2013-03-03 13:53:00,
2013-03-03 08:58:00,34.1,28.0,29.72,NNE,25,0.0,0.0,78,0.00,OVC,SKC,0.00,0.0,WeatherDisplay:10.37,2013-03-03 13:58:00,
2013-03-03 09:03:00,34.6,28.1,29.71,NNE,18,6.9,6.9,77,0.00,OVC,SKC,0.00,0.0,WeatherDisplay:10.37,2013-03-03 14:03:00,
2013-03-03 09:08:00,34.7,28.5,29.71,North,360,2.3,2.3,78,0.00,OVC,SKC,0.00,0.0,WeatherDisplay:10.37,2013-03-03 14:08:00,
2013-03-03 09:13:00,35.1,28.9,29.71,WNW,285,6.9,6.9,78,0.00,OVC,SKC,0.00,0.0,WeatherDisplay:10.37,2013-03-03 14:13:00,
2013-03-03 09:19:00,35.1,28.9,29.71,WNW,295,2.3,0.0,78,0.00,OVC,SKC,0.00,0.0,WeatherDisplay:10.37,2013-03-03 14:19:00,
2013-03-03 09:24:00,34.8,29.0,29.71,NNE,23,0.0,0.0,79,0.00,OVC,SKC,0.00,0.0,WeatherDisplay:10.37,2013-03-03 14:24:00,
2013-03-03 09:29:00,34.6,28.8,29.71,NNW,342,6.1,6.1,79,0.00,OVC,SKC,0.00,0.0,WeatherDisplay:10.37,2013-03-03 14:29:00,
2013-03-03 09:34:00,34.0,28.5,29.71,North,8,5.8,5.8,80,0.00,OVC,SKC,0.00,0.0,WeatherDisplay:10.37,2013-03-03 14:34:00,
2013-03-03 09:39:00,34.2,29.0,29.71,West,272,4.8,4.8,81,0.00,OVC,SKC,0.00,0.0,WeatherDisplay:10.37,2013-03-03 14:39:00,
2013-03-03 09:44:00,34.4,29.5,29.70,NNW,329,0.0,0.0,82,0.00,OVC,SKC,0.00,0.0,WeatherDisplay:10.37,2013-03-03 14:44:00,
2013-03-03 09:49:00,35.3,30.4,29.70,NNW,335,0.0,0.0,82,0.00,OVC,SKC,0.00,0.0,WeatherDisplay:10.37,2013-03-03 14:49:00,
2013-03-03 09:54:00,35.9,30.3,29.70,NNW,335,0.0,0.0,80,0.00,OVC,SKC,0.00,0.0,WeatherDisplay:10.37,2013-03-03 14:54:00,
2013-03-03 09:59:00,36.4,30.5,29.70,North,353,2.3,0.0,79,0.00,OVC,SKC,0.00,0.0,WeatherDisplay:10.37,2013-03-03 14:59:00,
2013-03-03 10:04:00,36.9,30.7,29.70,NNW,335,0.0,0.0,78,0.00,OVC,SKC,0.00,0.0,WeatherDisplay:10.37,2013-03-03 15:04:00,
2013-03-03 10:09:00,37.2,30.3,29.70,WNW,294,4.6,4.6,76,0.00,OVC,SKC,0.00,0.0,WeatherDisplay:10.37,2013-03-03 15:09:00,
2013-03-03 10:14:00,37.0,29.8,29.69,North,7,9.2,9.2,75,0.00,OVC,SKC,0.00,0.0,WeatherDisplay:10.37,2013-03-03 15:14:00,
2013-03-03 10:19:00,37.0,29.8,29.69,North,10,5.8,5.8,75,0.00,OVC,SKC,0.00,0.0,WeatherDisplay:10.37,2013-03-03 15:19:00,
2013-03-03 10:24:00,37.4,30.2,29.69,NW,305,5.9,5.9,75,0.00,OVC,SKC,0.00,0.0,WeatherDisplay:10.37,2013-03-03 15:24:00,
2013-03-03 10:29:00,38.0,30.4,29.69,WNW,295,1.7,0.0,74,0.00,OVC,SKC,0.00,0.0,WeatherDisplay:10.37,2013-03-03 15:29:00,
2013-03-03 10:34:00,39.0,30.7,29.69,NW,325,5.8,5.8,72,0.00,OVC,SKC,0.00,0.0,WeatherDisplay:10.37,2013-03-03 15:34:00,
2013-03-03 10:39:00,39.6,30.6,29.69,NNE,13,4.6,4.6,70,0.00,OVC,SKC,0.00,0.0,WeatherDisplay:10.37,2013-03-03 15:39:00,
2013-03-03 10:44:00,39.7,30.7,29.69,WNW,291,8.1,8.1,70,0.00,OVC,SKC,0.00,0.0,WeatherDisplay:10.37,2013-03-03 15:44:00,
2013-03-03 10:49:00,39.5,30.9,29.69,NNE,18,0.0,0.0,71,0.00,OVC,SKC,0.00,0.0,WeatherDisplay:10.37,2013-03-03 15:49:00,
2013-03-03 10:54:00,40.1,30.7,29.69,NE,37,6.9,6.9,69,0.00,OVC,SKC,0.00,0.0,WeatherDisplay:10.37,2013-03-03 15:54:00,
2013-03-03 10:59:00,40.0,31.0,29.69,North,360,5.8,5.8,70,0.00,OVC,SKC,0.00,0.0,WeatherDisplay:10.37,2013-03-03 15:59:00,
2013-03-03 11:04:00,40.0,30.6,29.68,North,360,0.0,0.0,69,0.00,OVC,SKC,0.00,0.0,WeatherDisplay:10.37,2013-03-03 16:04:00,
2013-03-03 11:09:00,40.7,31.3,29.68,NE,52,5.8,5.8,69,0.00,OVC,SKC,0.00,0.0,WeatherDisplay:10.37,2013-03-03 16:09:00,
2013-03-03 11:14:00,40.6,30.9,29.68,NNW,339,8.1,8.1,68,0.00,OVC,SKC,0.00,0.0,WeatherDisplay:10.37,2013-03-03 16:14:00,
2013-03-03 11:19:00,40.5,30.8,29.68,NE,47,5.8,5.8,68,0.00,OVC,SKC,0.00,0.0,WeatherDisplay:10.37,2013-03-03 16:19:00,
2013-03-03 11:24:00,40.8,31.4,29.68,North,353,3.5,3.5,69,0.00,OVC,SKC,0.00,0.0,WeatherDisplay:10.37,2013-03-03 16:24:00,
2013-03-03 11:29:00,41.1,31.3,29.68,North,11,4.6,4.6,68,0.00,OVC,SKC,0.00,0.0,WeatherDisplay:10.37,2013-03-03 16:29:00,
2013-03-03 11:34:00,40.8,31.1,29.68,NE,48,10.4,10.4,68,0.00,OVC,SKC,0.00,0.0,WeatherDisplay:10.37,2013-03-03 16:34:00,
2013-03-03 11:39:00,40.8,31.8,29.68,North,11,6.9,6.9,70,0.00,OVC,SKC,0.00,0.0,WeatherDisplay:10.37,2013-03-03 16:39:00,
2013-03-03 11:44:00,40.9,31.9,29.68,NNE,18,0.0,0.0,70,0.00,OVC,SKC,0.00,0.0,WeatherDisplay:10.37,2013-03-03 16:44:00,
2013-03-03 11:49:00,40.7,31.3,29.68,NE,35,4.6,4.6,69,0.00,OVC,SKC,0.00,0.0,WeatherDisplay:10.37,2013-03-03 16:49:00,
2013-03-03 11:54:00,40.8,31.1,29.68,North,350,3.5,3.5,68,0.00,OVC,SKC,0.00,0.0,WeatherDisplay:10.37,2013-03-03 16:54:00,
2013-03-03 11:59:00,40.7,31.0,29.68,NW,311,6.9,6.9,68,0.00,OVC,SKC,0.00,0.0,WeatherDisplay:10.37,2013-03-03 16:59:00,
2013-03-03 12:04:00,40.3,30.6,29.68,NW,325,5.8,5.8,68,0.00,OVC,SKC,0.00,0.0,WeatherDisplay:10.37,2013-03-03 17:04:00,
2013-03-03 12:09:00,39.7,30.0,29.67,West,268,8.1,8.1,68,0.00,OVC,SKC,0.00,0.0,WeatherDisplay:10.37,2013-03-03 17:09:00,
2013-03-03 12:14:00,39.7,30.0,29.67,NNW,328,9.2,9.2,68,0.00,OVC,SKC,0.00,0.0,WeatherDisplay:10.37,2013-03-03 17:14:00,
2013-03-03 12:19:00,39.5,29.8,29.67,West,271,6.9,6.9,68,0.00,OVC,SKC,0.00,0.0,WeatherDisplay:10.37,2013-03-03 17:19:00,
2013-03-03 12:24:00,39.6,30.3,29.67,NW,318,4.9,4.9,69,0.00,OVC,SKC,0.00,0.0,WeatherDisplay:10.37,2013-03-03 17:24:00,
2013-03-03 12:29:00,39.9,30.2,29.67,North,360,7.3,7.3,68,0.00,OVC,SKC,0.00,0.3,WeatherDisplay:10.37,2013-03-03 17:29:00,
2013-03-03 12:34:00,39.5,29.4,29.67,NNW,330,9.2,9.2,67,0.00,BKN,SKC,0.00,0.9,WeatherDisplay:10.37,2013-03-03 17:34:00,
2013-03-03 12:39:00,40.3,30.6,29.67,West,265,4.7,4.7,68,0.00,BKN,SKC,0.00,1.5,WeatherDisplay:10.37,2013-03-03 17:39:00,
2013-03-03 12:44:00,40.6,30.1,29.66,West,278,5.8,5.8,66,0.00,OVC,SKC,0.00,1.9,WeatherDisplay:10.37,2013-03-03 17:44:00,
2013-03-03 12:49:00,40.5,30.0,29.66,NNE,25,8.1,8.1,66,0.00,OVC,SKC,0.00,2.4,WeatherDisplay:10.37,2013-03-03 17:49:00,
2013-03-03 12:54:00,40.7,31.0,29.66,North,3,0.0,0.0,68,0.00,OVC,SKC,0.00,3.2,WeatherDisplay:10.37,2013-03-03 17:54:00,
2013-03-03 12:59:00,41.4,30.9,29.66,North,1,6.9,6.9,66,0.00,OVC,SKC,0.00,3.8,WeatherDisplay:10.37,2013-03-03 17:59:00,
2013-03-03 13:04:00,41.6,30.7,29.66,West,267,6.9,6.9,65,0.00,OVC,SKC,0.00,4.5,WeatherDisplay:10.37,2013-03-03 18:04:00,
2013-03-03 13:09:00,41.3,30.4,29.66,NW,315,5.8,5.8,65,0.00,OVC,SKC,0.00,4.8,WeatherDisplay:10.37,2013-03-03 18:09:00,
2013-03-03 13:14:00,41.1,30.6,29.65,NNW,339,9.2,9.2,66,0.00,OVC,SKC,0.00,5.2,WeatherDisplay:10.37,2013-03-03 18:14:00,
2013-03-03 13:19:00,40.8,30.7,29.65,WNW,282,5.0,5.0,67,0.00,OVC,SKC,0.00,5.8,WeatherDisplay:10.37,2013-03-03 18:19:00,
2013-03-03 13:24:00,40.4,30.3,29.65,WNW,291,7.0,7.0,67,0.00,OVC,SKC,0.00,6.4,WeatherDisplay:10.37,2013-03-03 18:24:00,
2013-03-03 13:29:00,40.1,30.4,29.65,WNW,284,4.6,4.6,68,0.00,OVC,SKC,0.00,7.0,WeatherDisplay:10.37,2013-03-03 18:29:00,
2013-03-03 13:34:00,40.3,30.6,29.65,West,264,8.1,8.1,68,0.00,OVC,SKC,0.00,7.7,WeatherDisplay:10.37,2013-03-03 18:34:00,
2013-03-03 13:39:00,40.3,30.2,29.65,West,270,11.5,11.5,67,0.00,OVC,SKC,0.00,8.2,WeatherDisplay:10.37,2013-03-03 18:39:00,
2013-03-03 13:44:00,40.3,30.6,29.65,WNW,287,5.8,5.8,68,0.00,OVC,SKC,0.00,8.9,WeatherDisplay:10.37,2013-03-03 18:44:00,
2013-03-03 13:49:00,40.6,30.9,29.65,NW,312,3.5,3.5,68,0.00,OVC,SKC,0.00,8.5,WeatherDisplay:10.37,2013-03-03 18:49:00,
2013-03-03 13:54:00,40.7,31.0,29.65,NNE,17,8.1,8.1,68,0.00,OVC,SKC,0.00,10.3,WeatherDisplay:10.37,2013-03-03 18:54:00,
2013-03-03 13:59:00,40.6,30.9,29.65,SW,220,9.2,9.2,68,0.00,OVC,SKC,0.00,10.9,WeatherDisplay:10.37,2013-03-03 18:59:00,
2013-03-03 14:04:00,40.6,30.9,29.65,NW,319,9.2,9.2,68,0.00,OVC,SKC,0.00,11.6,WeatherDisplay:10.37,2013-03-03 19:04:00,
2013-03-03 14:09:00,40.6,30.9,29.65,WNW,295,10.4,10.4,68,0.00,OVC,SKC,0.00,12.3,WeatherDisplay:10.37,2013-03-03 19:09:00,
2013-03-03 14:14:00,40.0,30.3,29.65,North,3,6.9,6.9,68,0.00,OVC,SKC,0.00,11.5,WeatherDisplay:10.37,2013-03-03 19:14:00,
2013-03-03 14:19:00,40.0,30.6,29.65,NW,323,6.9,6.9,69,0.00,OVC,SKC,0.00,12.1,WeatherDisplay:10.37,2013-03-03 19:19:00,
2013-03-03 14:25:00,40.4,30.7,29.65,NNE,20,3.5,3.5,68,0.00,OVC,SKC,0.00,13.3,WeatherDisplay:10.37,2013-03-03 19:25:00,
2013-03-03 14:30:00,40.8,31.1,29.65,NNW,339,6.9,6.9,68,0.00,OVC,SKC,0.00,12.6,WeatherDisplay:10.37,2013-03-03 19:30:00,
2013-03-03 14:35:00,40.5,30.8,29.65,NW,325,0.0,10.0,68,0.00,CLR,SKC,0.00,12.2,WeatherDisplay:10.37,2013-03-03 19:35:00,
2013-03-03 14:40:00,40.4,30.7,29.65,NW,308,0.0,0.0,68,0.00,OVC,SKC,0.00,11.8,WeatherDisplay:10.37,2013-03-03 19:40:00,
2013-03-03 14:45:00,40.6,30.9,29.65,NW,308,0.0,3.0,68,0.00,CLR,SKC,0.00,11.3,WeatherDisplay:10.37,2013-03-03 19:45:00,
2013-03-03 14:50:00,40.6,30.9,29.65,NW,325,6.9,6.9,68,0.00,OVC,SKC,0.00,11.6,WeatherDisplay:10.37,2013-03-03 19:50:00,
2013-03-03 14:55:00,40.2,30.5,29.65,NNW,337,5.0,7.0,68,0.00,CLR,SKC,0.00,12.2,WeatherDisplay:10.37,2013-03-03 19:55:00,
2013-03-03 14:59:00,39.6,29.9,29.65,NW,306,8.1,8.1,68,0.00,OVC,SKC,0.00,13.8,WeatherDisplay:10.37,2013-03-03 19:59:00,
2013-03-03 15:05:00,39.4,30.4,29.65,North,350,6.9,6.9,70,0.00,OVC,SKC,0.00,14.3,WeatherDisplay:10.37,2013-03-03 20:05:00,
2013-03-03 15:10:00,39.5,30.5,29.65,NW,305,6.9,6.9,70,0.00,OVC,SKC,0.00,14.7,WeatherDisplay:10.37,2013-03-03 20:10:00,
2013-03-03 15:15:00,39.3,30.3,29.65,NNW,346,3.0,8.0,70,0.00,CLR,SKC,0.00,13.9,WeatherDisplay:10.37,2013-03-03 20:15:00,
2013-03-03 15:20:00,39.2,30.2,29.65,WNW,288,5.8,5.8,70,0.00,OVC,SKC,0.00,15.6,WeatherDisplay:10.37,2013-03-03 20:20:00,
2013-03-03 15:25:00,39.4,30.4,29.65,NW,325,6.0,9.0,70,0.00,CLR,SKC,0.00,14.7,WeatherDisplay:10.37,2013-03-03 20:25:00,
2013-03-03 15:30:00,39.4,30.4,29.65,North,8,6.9,6.9,70,0.00,OVC,SKC,0.00,15.0,WeatherDisplay:10.37,2013-03-03 20:30:00,
2013-03-03 15:35:00,39.5,30.5,29.65,West,264,0.0,0.0,70,0.00,OVC,SKC,0.00,14.4,WeatherDisplay:10.37,2013-03-03 20:35:00,
2013-03-03 15:40:00,39.4,30.4,29.65,NNW,346,6.9,6.9,70,0.00,OVC,SKC,0.00,13.1,WeatherDisplay:10.37,2013-03-03 20:40:00,
2013-03-03 15:45:00,39.4,30.4,29.65,NNE,13,10.4,10.4,70,0.00,OVC,SKC,0.00,11.2,WeatherDisplay:10.37,2013-03-03 20:45:00,
2013-03-03 15:50:00,39.0,30.4,29.66,North,11,5.8,5.8,71,0.00,OVC,SKC,0.00,11.4,WeatherDisplay:10.37,2013-03-03 20:50:00,
2013-03-03 15:55:00,38.7,30.4,29.66,ENE,61,8.1,8.1,72,0.00,OVC,SKC,0.00,11.6,WeatherDisplay:10.37,2013-03-03 20:55:00,
2013-03-03 16:00:00,38.0,30.1,29.66,WNW,284,8.1,8.1,73,0.00,OVC,SKC,0.00,11.9,WeatherDisplay:10.37,2013-03-03 21:00:00,
2013-03-03 16:05:00,37.7,30.2,29.66,West,280,10.4,10.4,74,0.00,CLR,SKC,0.00,10.4,WeatherDisplay:10.37,2013-03-03 21:05:00,
2013-03-03 16:10:00,37.2,30.0,29.66,NNE,23,8.1,8.1,75,0.00,CLR,SKC,0.00,9.3,WeatherDisplay:10.37,2013-03-03 21:10:00,
2013-03-03 16:15:00,37.0,30.1,29.66,North,6,4.6,5.0,76,0.00,CLR,SKC,0.00,9.4,WeatherDisplay:10.37,2013-03-03 21:15:00,
2013-03-03 16:20:00,36.8,29.9,29.66,North,0,8.1,8.1,76,0.00,CLR,SKC,0.00,7.7,WeatherDisplay:10.37,2013-03-03 21:20:00,
2013-03-03 16:25:00,36.5,30.0,29.67,NW,305,4.6,0.0,77,0.00,CLR,SKC,0.00,7.8,WeatherDisplay:10.37,2013-03-03 21:25:00,
2013-03-03 16:30:00,36.4,30.2,29.66,North,1,6.9,6.9,78,0.00,CLR,SKC,0.00,6.6,WeatherDisplay:10.37,2013-03-03 21:30:00,
2013-03-03 16:35:00,36.2,30.0,29.67,WSW,240,4.6,4.6,78,0.00,CLR,SKC,0.00,6.7,WeatherDisplay:10.37,2013-03-03 21:35:00,
2013-03-03 16:40:00,36.3,30.1,29.67,WSW,240,0.0,0.0,78,0.00,CLR,SKC,0.00,6.8,WeatherDisplay:10.37,2013-03-03 21:40:00,
2013-03-03 16:45:00,36.5,30.0,29.67,NW,318,6.9,6.9,77,0.00,CLR,SKC,0.00,6.9,WeatherDisplay:10.37,2013-03-03 21:45:00,
2013-03-03 16:50:00,36.4,29.9,29.67,North,7,6.9,6.9,77,0.00,CLR,SKC,0.00,7.0,WeatherDisplay:10.37,2013-03-03 21:50:00,
2013-03-03 16:55:00,36.0,29.5,29.67,NNW,339,6.9,6.9,77,0.00,CLR,SKC,0.00,3.5,WeatherDisplay:10.37,2013-03-03 21:55:00,
2013-03-03 17:00:00,35.8,29.6,29.67,NE,54,10.4,10.4,78,0.00,CLR,SKC,0.00,5.0,WeatherDisplay:10.37,2013-03-03 22:00:00,
2013-03-03 17:05:00,35.6,29.4,29.67,NNW,347,8.1,8.1,78,0.00,CLR,SKC,0.00,3.6,WeatherDisplay:10.37,2013-03-03 22:05:00,
2013-03-03 17:10:00,35.6,29.4,29.67,North,7,4.6,4.6,78,0.00,CLR,SKC,0.00,3.6,WeatherDisplay:10.37,2013-03-03 22:10:00,
2013-03-03 17:15:00,35.2,28.7,29.67,SSW,196,2.3,0.0,77,0.00,CLR,SKC,0.00,3.7,WeatherDisplay:10.37,2013-03-03 22:15:00,
2013-03-03 17:20:00,35.4,29.2,29.67,NW,323,0.0,0.0,78,0.00,CLR,SKC,0.00,3.7,WeatherDisplay:10.37,2013-03-03 22:20:00,
2013-03-03 17:25:00,35.1,28.9,29.67,North,354,6.9,6.9,78,0.00,CLR,SKC,0.00,1.5,WeatherDisplay:10.37,2013-03-03 22:25:00,
2013-03-03 17:30:00,35.1,28.9,29.67,North,352,5.8,5.8,78,0.00,CLR,SKC,0.00,1.5,WeatherDisplay:10.37,2013-03-03 22:30:00,
2013-03-03 17:35:00,35.0,28.8,29.67,North,3,4.6,4.6,78,0.00,CLR,SKC,0.00,1.5,WeatherDisplay:10.37,2013-03-03 22:35:00,
2013-03-03 17:40:00,35.1,28.9,29.67,WNW,285,0.0,0.0,78,0.00,CLR,SKC,0.00,1.5,WeatherDisplay:10.37,2013-03-03 22:40:00,
2013-03-03 17:45:00,35.0,28.8,29.67,NNW,336,4.6,0.0,78,0.00,CLR,SKC,0.00,1.5,WeatherDisplay:10.37,2013-03-03 22:45:00,
2013-03-03 17:50:00,34.7,28.5,29.67,NNW,337,3.5,0.0,78,0.00,CLR,SKC,0.00,1.5,WeatherDisplay:10.37,2013-03-03 22:50:00,
2013-03-03 17:55:00,34.8,28.6,29.67,NNW,335,0.0,0.0,78,0.00,CLR,SKC,0.00,0.0,WeatherDisplay:10.37,2013-03-03 22:55:00,
2013-03-03 18:00:00,34.9,29.0,29.68,NW,318,5.8,5.8,79,0.00,CLR,SKC,0.00,0.0,WeatherDisplay:10.37,2013-03-03 23:00:00,
2013-03-03 18:05:00,34.5,28.7,29.68,NNW,336,0.0,0.0,79,0.00,CLR,SKC,0.00,0.0,WeatherDisplay:10.37,2013-03-03 23:05:00,
2013-03-03 18:10:00,34.8,29.3,29.68,WNW,301,4.5,4.5,80,0.00,CLR,SKC,0.00,0.0,WeatherDisplay:10.37,2013-03-03 23:10:00,
2013-03-03 18:15:00,34.7,29.2,29.68,NW,308,0.0,0.0,80,0.00,CLR,SKC,0.00,0.0,WeatherDisplay:10.37,2013-03-03 23:15:00,
2013-03-03 18:20:00,34.7,29.2,29.68,NW,319,0.0,0.0,80,0.00,CLR,SKC,0.00,0.0,WeatherDisplay:10.37,2013-03-03 23:20:00,
2013-03-03 18:25:00,34.8,29.3,29.68,NW,319,0.0,0.0,80,0.00,CLR,SKC,0.00,0.0,WeatherDisplay:10.37,2013-03-03 23:25:00,
2013-03-03 18:30:00,34.9,29.4,29.68,West,271,3.5,3.5,80,0.00,CLR,SKC,0.00,0.0,WeatherDisplay:10.37,2013-03-03 23:30:00,
2013-03-03 18:35:00,34.9,29.4,29.68,West,271,0.0,0.0,80,0.00,CLR,SKC,0.00,0.0,WeatherDisplay:10.37,2013-03-03 23:35:00,
2013-03-03 18:40:00,35.3,30.1,29.68,SW,233,0.0,0.0,81,0.00,CLR,SKC,0.00,0.0,WeatherDisplay:10.37,2013-03-03 23:40:00,
2013-03-03 18:45:00,35.3,29.7,29.69,NNW,340,8.1,8.1,80,0.00,CLR,SKC,0.00,0.0,WeatherDisplay:10.37,2013-03-03 23:45:00,
2013-03-03 18:50:00,35.0,29.5,29.69,NNW,330,0.0,0.0,80,0.00,CLR,SKC,0.00,0.0,WeatherDisplay:10.37,2013-03-03 23:50:00,
2013-03-03 18:55:00,34.8,29.3,29.69,North,6,3.5,0.0,80,0.00,CLR,SKC,0.00,0.0,WeatherDisplay:10.37,2013-03-03 23:55:00,
2013-03-03 19:00:00,34.6,29.1,29.69,North,360,5.8,5.8,80,0.00,CLR,SKC,0.00,0.0,WeatherDisplay:10.37,2013-03-04 00:00:00,
2013-03-03 19:05:00,34.3,28.8,29.69,NW,311,8.1,8.1,80,0.00,CLR,SKC,0.00,0.0,WeatherDisplay:10.37,2013-03-04 00:05:00,
2013-03-03 19:10:00,34.4,29.2,29.69,West,274,4.6,4.6,81,0.00,CLR,SKC,0.00,0.0,WeatherDisplay:10.37,2013-03-04 00:10:00,
2013-03-03 19:15:00,34.2,29.0,29.69,SSE,164,5.8,5.8,81,0.00,CLR,SKC,0.00,0.0,WeatherDisplay:10.37,2013-03-04 00:15:00,
2013-03-03 19:20:00,34.1,28.9,29.69,North,352,5.8,5.8,81,0.00,CLR,SKC,0.00,0.0,WeatherDisplay:10.37,2013-03-04 00:20:00,
2013-03-03 19:25:00,34.1,28.9,29.69,North,359,5.8,5.8,81,0.00,CLR,SKC,0.00,0.0,WeatherDisplay:10.37,2013-03-04 00:25:00,
2013-03-03 19:30:00,34.0,28.8,29.69,North,1,4.6,4.6,81,0.00,CLR,SKC,0.00,0.0,WeatherDisplay:10.37,2013-03-04 00:30:00,
2013-03-03 19:35:00,34.1,28.9,29.69,North,1,0.0,0.0,81,0.00,CLR,SKC,0.00,0.0,WeatherDisplay:10.37,2013-03-04 00:35:00,
2013-03-03 19:40:00,34.1,28.9,29.69,North,1,0.0,0.0,81,0.00,CLR,SKC,0.00,0.0,WeatherDisplay:10.37,2013-03-04 00:40:00,
2013-03-03 19:46:00,33.8,28.6,29.69,NNW,342,3.5,3.5,81,0.00,CLR,SKC,0.00,0.0,WeatherDisplay:10.37,2013-03-04 00:46:00,
2013-03-03 19:51:00,33.9,28.7,29.69,NNW,342,0.0,0.0,81,0.00,CLR,SKC,0.00,0.0,WeatherDisplay:10.37,2013-03-04 00:51:00,
2013-03-03 19:56:00,34.0,28.8,29.69,North,360,5.8,5.8,81,0.00,CLR,SKC,0.00,0.0,WeatherDisplay:10.37,2013-03-04 00:56:00,
2013-03-03 20:01:00,33.8,28.6,29.70,NW,322,4.6,4.6,81,0.00,CLR,SKC,0.00,0.0,WeatherDisplay:10.37,2013-03-04 01:01:00,
2013-03-03 20:06:00,33.8,28.6,29.69,West,274,5.8,5.8,81,0.00,CLR,SKC,0.00,0.0,WeatherDisplay:10.37,2013-03-04 01:06:00,
2013-03-03 20:11:00,33.6,28.4,29.70,West,274,0.0,0.0,81,0.00,CLR,SKC,0.00,0.0,WeatherDisplay:10.37,2013-03-04 01:11:00,
2013-03-03 20:16:00,33.5,28.3,29.70,West,274,0.0,0.0,81,0.00,CLR,SKC,0.00,0.0,WeatherDisplay:10.37,2013-03-04 01:16:00,
2013-03-03 20:21:00,33.6,28.4,29.70,West,277,4.6,4.6,81,0.00,CLR,SKC,0.00,0.0,WeatherDisplay:10.37,2013-03-04 01:21:00,
2013-03-03 20:26:00,33.4,28.2,29.70,West,277,0.0,0.0,81,0.00,CLR,SKC,0.00,0.0,WeatherDisplay:10.37,2013-03-04 01:26:00,
2013-03-03 20:31:00,33.6,28.4,29.70,West,277,0.0,0.0,81,0.00,CLR,SKC,0.00,0.0,WeatherDisplay:10.37,2013-03-04 01:31:00,
2013-03-03 20:36:00,33.6,28.4,29.70,NW,326,3.5,3.5,81,0.00,CLR,SKC,0.00,0.0,WeatherDisplay:10.37,2013-03-04 01:36:00,
2013-03-03 20:41:00,33.7,28.5,29.70,North,3,4.6,4.6,81,0.00,CLR,SKC,0.00,0.0,WeatherDisplay:10.37,2013-03-04 01:41:00,
2013-03-03 20:46:00,33.3,27.8,29.70,NNW,347,5.8,5.8,80,0.00,CLR,SKC,0.00,0.0,WeatherDisplay:10.37,2013-03-04 01:46:00,
2013-03-03 20:51:00,33.2,27.7,29.71,NW,319,0.0,0.0,80,0.00,CLR,SKC,0.00,0.0,WeatherDisplay:10.37,2013-03-04 01:51:00,
2013-03-03 20:56:00,33.1,27.6,29.71,NNW,339,6.0,6.0,80,0.00,CLR,SKC,0.00,0.0,WeatherDisplay:10.37,2013-03-04 01:56:00,
2013-03-03 21:01:00,33.1,27.3,29.71,West,275,0.0,0.0,79,0.00,CLR,SKC,0.00,0.0,WeatherDisplay:10.37,2013-03-04 02:01:00,
2013-03-03 21:06:00,33.1,27.3,29.71,North,360,7.8,7.8,79,0.00,CLR,SKC,0.00,0.0,WeatherDisplay:10.37,2013-03-04 02:06:00,
2013-03-03 21:11:00,32.6,26.8,29.71,NNW,336,6.9,6.9,79,0.00,CLR,SKC,0.00,0.0,WeatherDisplay:10.37,2013-03-04 02:11:00,
2013-03-03 21:16:00,32.3,26.5,29.71,NNW,347,9.2,9.2,79,0.00,CLR,SKC,0.00,0.0,WeatherDisplay:10.37,2013-03-04 02:16:00,
2013-03-03 21:21:00,32.7,26.6,29.71,NNW,343,9.2,9.2,78,0.00,CLR,SKC,0.00,0.0,WeatherDisplay:10.37,2013-03-04 02:21:00,
2013-03-03 21:26:00,32.4,26.3,29.71,NNW,335,3.5,0.0,78,0.00,CLR,SKC,0.00,0.0,WeatherDisplay:10.37,2013-03-04 02:26:00,
2013-03-03 21:31:00,31.8,26.0,29.71,WNW,291,3.5,0.0,79,0.00,CLR,SKC,0.00,0.0,WeatherDisplay:10.37,2013-03-04 02:31:00,
2013-03-03 21:36:00,31.8,26.0,29.71,NW,316,4.6,0.0,79,0.00,CLR,SKC,0.00,0.0,WeatherDisplay:10.37,2013-03-04 02:36:00,
2013-03-03 21:41:00,31.1,25.0,29.71,West,281,5.8,5.8,78,0.00,CLR,SKC,0.00,0.0,WeatherDisplay:10.37,2013-03-04 02:41:00,
2013-03-03 21:46:00,31.6,25.8,29.71,West,270,0.0,0.0,79,0.00,CLR,SKC,0.00,0.0,WeatherDisplay:10.37,2013-03-04 02:46:00,
2013-03-03 21:51:00,31.5,25.4,29.71,WNW,299,6.9,6.9,78,0.00,CLR,SKC,0.00,0.0,WeatherDisplay:10.37,2013-03-04 02:51:00,
2013-03-03 21:56:00,31.2,25.4,29.71,NNW,328,0.0,0.0,79,0.00,CLR,SKC,0.00,0.0,WeatherDisplay:10.37,2013-03-04 02:56:00,
2013-03-03 22:01:00,31.1,25.3,29.71,WNW,302,10.4,10.4,79,0.00,CLR,SKC,0.00,0.0,WeatherDisplay:10.37,2013-03-04 03:01:00,
2013-03-03 22:06:00,31.3,25.5,29.71,NW,309,4.6,4.6,79,0.00,CLR,SKC,0.00,0.0,WeatherDisplay:10.37,2013-03-04 03:06:00,
2013-03-03 22:11:00,30.9,25.2,29.71,NW,309,0.0,0.0,79,0.00,CLR,SKC,0.00,0.0,WeatherDisplay:10.37,2013-03-04 03:11:00,
2013-03-03 22:16:00,31.0,25.2,29.71,WNW,295,5.8,5.8,79,0.00,CLR,SKC,0.00,0.0,WeatherDisplay:10.37,2013-03-04 03:16:00,
2013-03-03 22:21:00,30.5,24.8,29.71,NW,315,5.8,0.0,79,0.00,CLR,SKC,0.00,0.0,WeatherDisplay:10.37,2013-03-04 03:21:00,
2013-03-03 22:27:00,30.7,24.7,29.71,NNW,333,5.8,5.8,78,0.00,CLR,SKC,0.00,0.0,WeatherDisplay:10.37,2013-03-04 03:27:00,
2013-03-03 22:32:00,30.4,24.4,29.71,NW,309,5.8,5.8,78,0.00,CLR,SKC,0.00,0.0,WeatherDisplay:10.37,2013-03-04 03:32:00,
2013-03-03 22:37:00,30.5,24.5,29.71,NNW,336,5.8,5.8,78,0.00,CLR,SKC,0.00,0.0,WeatherDisplay:10.37,2013-03-04 03:37:00,
2013-03-03 22:42:00,30.2,24.5,29.71,North,360,4.8,4.8,79,0.00,CLR,SKC,0.00,0.0,WeatherDisplay:10.37,2013-03-04 03:42:00,
2013-03-03 22:47:00,30.6,24.6,29.71,North,10,8.1,8.1,78,0.00,CLR,SKC,0.00,0.0,WeatherDisplay:10.37,2013-03-04 03:47:00,
2013-03-03 22:52:00,30.0,24.3,29.71,NW,326,3.4,3.4,79,0.00,CLR,SKC,0.00,0.0,WeatherDisplay:10.37,2013-03-04 03:52:00,
2013-03-03 22:57:00,29.9,24.2,29.71,North,360,6.7,6.7,79,0.00,CLR,SKC,0.00,0.0,WeatherDisplay:10.37,2013-03-04 03:57:00,
2013-03-03 23:02:00,30.0,24.3,29.71,North,352,0.0,0.0,79,0.00,CLR,SKC,0.00,0.0,WeatherDisplay:10.37,2013-03-04 04:02:00,
2013-03-03 23:07:00,29.7,24.0,29.71,WNW,295,3.2,3.2,79,0.00,CLR,SKC,0.00,0.0,WeatherDisplay:10.37,2013-03-04 04:07:00,
2013-03-03 23:12:00,30.1,24.4,29.71,West,265,0.0,0.0,79,0.00,CLR,SKC,0.00,0.0,WeatherDisplay:10.37,2013-03-04 04:12:00,
2013-03-03 23:17:00,30.3,24.6,29.71,West,265,0.0,0.0,79,0.00,CLR,SKC,0.00,0.0,WeatherDisplay:10.37,2013-03-04 04:17:00,
2013-03-03 23:22:00,30.1,24.4,29.71,West,265,0.0,0.0,79,0.00,CLR,SKC,0.00,0.0,WeatherDisplay:10.37,2013-03-04 04:22:00,
2013-03-03 23:28:00,30.2,24.5,29.71,West,277,2.3,2.3,79,0.00,CLR,SKC,0.00,0.0,WeatherDisplay:10.37,2013-03-04 04:28:00,
2013-03-03 23:33:00,30.2,24.8,29.71,WNW,299,0.0,0.0,80,0.00,CLR,SKC,0.00,0.0,WeatherDisplay:10.37,2013-03-04 04:33:00,
2013-03-03 23:38:00,30.1,24.4,29.71,West,277,6.9,6.9,79,0.00,CLR,SKC,0.00,0.0,WeatherDisplay:10.37,2013-03-04 04:38:00,
2013-03-03 23:43:00,29.8,24.1,29.72,West,274,0.0,0.0,79,0.00,CLR,SKC,0.00,0.0,WeatherDisplay:10.37,2013-03-04 04:43:00,
2013-03-03 23:48:00,29.8,24.4,29.72,West,274,0.0,0.0,80,0.00,CLR,SKC,0.00,0.0,WeatherDisplay:10.37,2013-03-04 04:48:00,
2013-03-03 23:53:00,30.3,24.9,29.72,West,274,0.0,0.0,80,0.00,CLR,SKC,0.00,0.0,WeatherDisplay:10.37,2013-03-04 04:53:00,
2013-03-03 23:58:00,30.2,24.8,29.72,West,278,0.0,0.0,80,0.00,CLR,SKC,0.00,0.0,WeatherDisplay:10.37,2013-03-04 04:58:00,